Time;durP1;ratioP1;P1;durP2;ratioP2;P2;SDS_P1;SDS_P2;PMS_P1;PMS_P2;Temp;Humidity;BMP_temperature;BMP_pressure;BME280_temperature;BME280_humidity;BME280_pressure;Samples;Min_cycle;Max_cycle;Signal;HPM_P1;HPM_P2
2022/05/29 00:01:51;;;;;;;14.93;4.75;;;10.00;99.90;;;;;;5030119;28;20045;-66
2022/05/29 00:04:18;;;;;;;15.93;4.88;;;9.90;99.90;;;;;;5047501;28;20087;-67
2022/05/29 00:06:47;;;;;;;15.07;4.78;;;10.00;99.90;;;;;;5029098;28;20374;-66
2022/05/29 00:09:18;;;;;;;12.20;5.43;;;9.90;99.90;;;;;;5061789;28;20049;-67
2022/05/29 00:11:43;;;;;;;12.73;4.78;;;10.00;99.90;;;;;;5046736;28;20056;-66
2022/05/29 00:14:09;;;;;;;11.95;5.70;;;10.00;99.90;;;;;;5028888;28;20053;-67
2022/05/29 00:16:35;;;;;;;12.18;4.38;;;10.10;99.90;;;;;;5047968;28;20096;-67
2022/05/29 00:19:01;;;;;;;15.68;4.60;;;10.00;99.90;;;;;;5047771;28;20078;-66
2022/05/29 00:21:31;;;;;;;18.75;5.10;;;10.00;99.90;;;;;;5045250;28;20103;-67
2022/05/29 00:23:57;;;;;;;13.27;4.85;;;10.00;99.90;;;;;;5047121;28;20048;-66
2022/05/29 00:26:22;;;;;;;18.42;5.25;;;9.90;99.90;;;;;;5046294;28;20383;-67
2022/05/29 00:28:48;;;;;;;15.45;5.30;;;10.00;99.90;;;;;;5044866;28;20041;-67
2022/05/29 00:31:14;;;;;;;14.63;5.05;;;9.80;99.90;;;;;;5046208;28;20071;-67
2022/05/29 00:33:40;;;;;;;18.23;4.75;;;10.10;99.90;;;;;;5046134;28;20045;-67
2022/05/29 00:36:11;;;;;;;18.27;5.05;;;9.90;99.90;;;;;;5045575;28;20076;-67
2022/05/29 00:38:39;;;;;;;13.10;4.38;;;9.90;99.90;;;;;;5028806;28;20053;-66
2022/05/29 00:41:17;;;;;;;18.15;4.68;;;9.80;99.90;;;;;;5046389;28;20041;-67
2022/05/29 00:44:06;;;;;;;14.25;4.82;;;9.70;99.90;;;;;;5029769;28;20052;-67
2022/05/29 00:46:33;;;;;;;16.17;5.28;;;9.80;99.90;;;;;;5024850;28;20050;-67
2022/05/29 00:48:59;;;;;;;12.50;4.32;;;9.70;99.90;;;;;;5043670;28;20056;-67
2022/05/29 00:51:25;;;;;;;12.98;4.68;;;9.60;99.90;;;;;;5045610;28;20061;-67
2022/05/29 00:53:50;;;;;;;12.43;4.65;;;9.70;99.90;;;;;;5045621;28;20061;-66
2022/05/29 00:56:16;;;;;;;17.95;4.70;;;9.80;99.90;;;;;;5044063;28;20045;-67
2022/05/29 00:58:44;;;;;;;12.50;4.80;;;9.50;99.90;;;;;;5045656;28;20046;-66
2022/05/29 01:01:10;;;;;;;17.20;3.97;;;9.50;99.90;;;;;;5048718;28;20037;-67
2022/05/29 01:03:36;;;;;;;15.55;5.03;;;9.60;99.90;;;;;;5045953;28;20128;-67
2022/05/29 01:06:01;;;;;;;13.38;4.97;;;9.50;99.90;;;;;;5026175;28;20053;-67
2022/05/29 01:08:34;;;;;;;15.82;5.53;;;9.50;99.90;;;;;;5045437;28;20041;-67
2022/05/29 01:11:34;;;;;;;11.68;4.90;;;9.50;99.90;;;;;;5046147;28;20059;-67
2022/05/29 01:14:19;;;;;;;15.65;4.18;;;9.50;99.90;;;;;;5045255;28;20084;-66
2022/05/29 01:17:21;;;;;;;15.07;4.78;;;9.60;99.90;;;;;;5040020;28;20480;-66
2022/05/29 01:20:06;;;;;;;21.90;5.47;;;9.50;99.90;;;;;;5024170;28;20111;-67
2022/05/29 01:22:57;;;;;;;12.93;4.47;;;9.60;99.90;;;;;;5028212;28;20053;-66
2022/05/29 01:25:49;;;;;;;16.67;5.13;;;9.60;99.90;;;;;;5031178;28;20080;-67
2022/05/29 01:28:26;;;;;;;13.18;4.40;;;9.70;99.90;;;;;;5042678;28;20046;-67
2022/05/29 01:31:10;;;;;;;14.40;4.15;;;9.60;99.90;;;;;;5044826;28;20053;-66
2022/05/29 01:33:39;;;;;;;13.82;4.30;;;9.50;99.90;;;;;;5044894;28;20409;-66
2022/05/29 01:36:24;;;;;;;18.60;5.22;;;9.50;99.90;;;;;;5044524;28;20046;-66
2022/05/29 01:39:22;;;;;;;16.65;5.10;;;9.40;99.90;;;;;;5044782;28;20064;-66
2022/05/29 01:41:56;;;;;;;12.68;3.70;;;9.40;99.90;;;;;;4995580;28;20046;-66
2022/05/29 01:45:03;;;;;;;14.20;4.13;;;9.40;99.90;;;;;;5037606;28;20045;-67
2022/05/29 01:47:53;;;;;;;15.98;4.30;;;9.50;99.90;;;;;;5031359;28;20061;-66
2022/05/29 01:50:50;;;;;;;15.73;4.22;;;9.40;99.90;;;;;;5044214;28;20060;-66
2022/05/29 01:53:25;;;;;;;12.60;4.25;;;9.50;99.90;;;;;;5034480;28;20051;-67
2022/05/29 01:55:58;;;;;;;16.25;4.60;;;9.40;99.90;;;;;;5042350;28;20044;-66
2022/05/29 01:58:32;;;;;;;10.63;4.43;;;9.60;99.90;;;;;;5044035;28;20054;-67
2022/05/29 02:01:00;;;;;;;13.88;4.95;;;9.50;99.90;;;;;;5031027;28;20046;-67
2022/05/29 02:03:34;;;;;;;10.68;5.03;;;9.80;99.90;;;;;;5044377;28;20060;-67
2022/05/29 02:06:14;;;;;;;16.70;4.50;;;9.40;99.90;;;;;;5038486;28;20127;-66
2022/05/29 02:09:01;;;;;;;15.55;4.95;;;9.50;99.90;;;;;;5026484;28;20057;-67
2022/05/29 02:11:28;;;;;;;15.30;4.75;;;9.40;99.90;;;;;;5045408;28;20128;-67
2022/05/29 02:14:20;;;;;;;15.20;4.57;;;9.40;99.90;;;;;;5045384;28;20116;-66
2022/05/29 02:16:59;;;;;;;17.20;4.80;;;9.50;99.90;;;;;;5045153;28;20034;-67
2022/05/29 02:19:34;;;;;;;15.73;4.47;;;9.40;99.90;;;;;;5026367;28;20061;-67
2022/05/29 02:22:05;;;;;;;18.80;4.70;;;9.40;99.90;;;;;;5044126;28;20054;-67
2022/05/29 02:24:35;;;;;;;19.98;5.45;;;9.50;99.90;;;;;;5028163;28;20057;-67
2022/05/29 02:27:06;;;;;;;;;;;9.50;99.90;;;;;;5048572;28;20040;-66
2022/05/29 02:29:32;;;;;;;15.80;4.45;;;9.30;99.90;;;;;;5028557;28;19928;-67
2022/05/29 02:32:10;;;;;;;20.00;4.70;;;9.60;99.90;;;;;;5043802;28;20108;-67
2022/05/29 02:35:06;;;;;;;16.77;5.53;;;9.50;99.90;;;;;;5027486;28;20124;-66
2022/05/29 02:37:39;;;;;;;14.98;5.28;;;9.40;99.90;;;;;;5013546;28;20075;-67
2022/05/29 02:40:31;;;;;;;18.63;4.93;;;9.40;99.90;;;;;;5028565;28;20053;-67
2022/05/29 02:43:05;;;;;;;11.40;4.60;;;9.30;99.90;;;;;;5027108;28;20053;-66
2022/05/29 02:45:35;;;;;;;13.38;4.80;;;9.40;99.90;;;;;;5043882;28;20393;-67
2022/05/29 02:48:22;;;;;;;16.40;4.95;;;9.40;99.90;;;;;;5043032;28;20045;-66
2022/05/29 02:50:58;;;;;;;17.55;5.10;;;9.40;99.90;;;;;;5043348;28;20048;-67
2022/05/29 02:53:25;;;;;;;17.77;5.35;;;9.30;99.90;;;;;;5027493;28;20045;-67
2022/05/29 02:55:51;;;;;;;15.00;4.72;;;9.40;99.90;;;;;;5043486;28;20053;-67
2022/05/29 02:58:24;;;;;;;19.30;6.57;;;9.30;99.90;;;;;;5043320;28;20048;-67
2022/05/29 03:00:52;;;;;;;14.80;5.07;;;9.40;99.90;;;;;;5046943;28;20052;-67
2022/05/29 03:03:34;;;;;;;13.43;4.68;;;9.40;99.90;;;;;;5028409;28;20596;-67
2022/05/29 03:06:18;;;;;;;15.35;4.70;;;9.30;99.90;;;;;;5025697;28;20095;-67
2022/05/29 03:09:07;;;;;;;12.77;5.53;;;9.30;99.90;;;;;;5044197;28;20046;-66
2022/05/29 03:11:39;;;;;;;20.15;5.05;;;9.40;99.90;;;;;;5040655;28;20336;-66
2022/05/29 03:14:32;;;;;;;17.98;5.28;;;9.20;99.90;;;;;;5043593;28;20057;-67
2022/05/29 03:16:58;;;;;;;12.55;4.60;;;9.30;99.90;;;;;;5043555;28;20136;-67
2022/05/29 03:19:34;;;;;;;15.13;5.35;;;9.40;99.90;;;;;;5024523;28;20057;-66
2022/05/29 03:22:16;;;;;;;21.90;5.03;;;9.30;99.90;;;;;;5028618;28;20331;-67
2022/05/29 03:24:48;;;;;;;18.40;5.40;;;9.40;99.90;;;;;;5029184;28;20057;-67
2022/05/29 03:27:47;;;;;;;15.80;4.82;;;9.40;99.90;;;;;;5047799;28;20071;-66
2022/05/29 03:30:20;;;;;;;16.50;5.03;;;9.40;99.90;;;;;;4918611;29;20055;-67
2022/05/29 03:32:53;;;;;;;16.25;4.85;;;9.30;99.90;;;;;;4916176;29;20060;-66
2022/05/29 03:35:19;;;;;;;16.50;5.65;;;9.40;99.90;;;;;;4933591;29;20133;-67
2022/05/29 03:37:45;;;;;;;17.58;5.38;;;9.40;99.90;;;;;;4916368;29;20048;-67
2022/05/29 03:40:11;;;;;;;14.07;5.30;;;9.40;99.90;;;;;;4918357;29;20063;-67
2022/05/29 03:42:37;;;;;;;13.50;5.10;;;9.50;99.90;;;;;;4929464;29;20111;-67
2022/05/29 03:45:03;;;;;;;14.45;5.68;;;9.50;99.90;;;;;;4915058;29;20083;-67
2022/05/29 03:47:29;;;;;;;13.40;4.72;;;9.40;99.90;;;;;;4921231;29;20579;-67
2022/05/29 03:49:54;;;;;;;18.58;4.95;;;9.40;99.90;;;;;;4931470;29;20048;-67
2022/05/29 03:52:20;;;;;;;18.52;5.85;;;9.50;99.90;;;;;;4932262;29;20060;-67
2022/05/29 03:54:46;;;;;;;15.32;5.00;;;9.30;99.90;;;;;;4934639;29;20119;-67
2022/05/29 03:57:11;;;;;;;12.35;5.78;;;9.40;99.90;;;;;;4912103;29;20044;-67
2022/05/29 03:59:37;;;;;;;17.52;5.32;;;9.40;99.90;;;;;;4931741;29;20055;-67
2022/05/29 04:02:03;;;;;;;18.60;4.55;;;9.50;99.90;;;;;;4930797;29;20044;-66
2022/05/29 04:04:29;;;;;;;13.90;4.28;;;9.50;99.90;;;;;;4930256;29;20079;-66
2022/05/29 04:06:54;;;;;;;12.90;4.97;;;9.40;99.90;;;;;;5032527;28;20084;-66
2022/05/29 04:12:05;;;;;;;12.95;3.78;;;9.50;99.90;;;;;;5046234;28;20413;-66
2022/05/29 04:14:43;;;;;;;12.77;4.15;;;9.60;99.90;;;;;;5046411;28;20060;-67
2022/05/29 04:17:11;;;;;;;13.80;4.28;;;9.60;99.90;;;;;;5030136;28;20068;-67
2022/05/29 04:19:37;;;;;;;15.45;4.20;;;9.60;99.90;;;;;;5046842;28;20037;-66
2022/05/29 04:22:19;;;;;;;14.57;4.70;;;9.70;99.90;;;;;;5032277;28;20045;-67
2022/05/29 04:24:45;;;;;;;16.58;5.90;;;9.60;99.90;;;;;;5047116;28;20457;-66
2022/05/29 04:27:14;;;;;;;15.05;4.90;;;9.60;99.90;;;;;;5046353;28;20045;-67
2022/05/29 04:29:40;;;;;;;14.63;4.10;;;9.60;99.90;;;;;;5047543;28;20089;-67
2022/05/29 04:34:57;;;;;;;14.90;3.83;;;9.60;99.90;;;;;;5044146;28;20072;-66
2022/05/29 04:37:24;;;;;;;15.88;4.43;;;9.60;99.90;;;;;;5045588;28;20033;-66
2022/05/29 04:39:50;;;;;;;14.93;3.92;;;9.70;99.90;;;;;;5029223;28;20109;-66
2022/05/29 04:42:16;;;;;;;14.80;3.83;;;9.80;99.90;;;;;;5031010;28;20052;-67
2022/05/29 04:44:41;;;;;;;13.85;3.65;;;9.60;99.90;;;;;;5030364;28;20045;-67
2022/05/29 04:47:09;;;;;;;14.02;3.97;;;9.60;99.90;;;;;;5046096;28;20037;-66
2022/05/29 04:49:39;;;;;;;12.45;4.20;;;9.80;99.90;;;;;;5034346;28;20054;-66
2022/05/29 04:52:08;;;;;;;;;;;9.80;99.90;;;;;;5045646;28;20109;-66
2022/05/29 04:54:37;;;;;;;9.25;3.55;;;9.70;99.90;;;;;;5061108;28;19976;-66
2022/05/29 04:57:04;;;;;;;18.27;3.78;;;9.60;99.90;;;;;;5045428;28;20049;-67
2022/05/29 04:59:30;;;;;;;17.33;4.18;;;9.80;99.90;;;;;;5050551;28;20119;-66
2022/05/29 05:01:58;;;;;;;15.88;3.33;;;10.00;99.90;;;;;;5050601;28;20553;-66
2022/05/29 05:04:24;;;;;;;13.32;3.70;;;9.90;99.90;;;;;;5045378;28;20463;-66
2022/05/29 05:06:53;;;;;;;13.05;4.57;;;9.70;99.90;;;;;;5045859;28;20057;-66
2022/05/29 05:09:18;;;;;;;19.25;5.15;;;9.90;99.90;;;;;;5044334;28;20053;-66
2022/05/29 05:11:44;;;;;;;14.98;4.30;;;9.90;99.90;;;;;;5063353;28;20056;-66
2022/05/29 05:14:10;;;;;;;12.85;3.58;;;9.90;99.90;;;;;;5029690;28;20131;-66
2022/05/29 05:16:35;;;;;;;10.35;3.15;;;9.80;99.90;;;;;;5045665;28;20050;-66
2022/05/29 05:19:01;;;;;;;13.13;3.30;;;9.90;99.90;;;;;;5045131;28;20064;-66
2022/05/29 05:21:27;;;;;;;13.73;3.13;;;10.20;99.90;;;;;;5024099;28;20112;-66
2022/05/29 05:23:52;;;;;;;13.00;3.47;;;10.00;99.90;;;;;;5025327;28;20092;-66
2022/05/29 05:26:19;;;;;;;11.82;3.30;;;9.90;99.90;;;;;;5025993;28;20064;-66
2022/05/29 05:28:45;;;;;;;16.75;3.67;;;9.80;99.90;;;;;;5007971;28;20054;-66
2022/05/29 05:31:11;;;;;;;12.77;3.80;;;10.00;99.90;;;;;;5020520;28;20050;-66
2022/05/29 05:33:36;;;;;;;9.13;3.00;;;10.00;99.90;;;;;;5025309;28;20049;-66
2022/05/29 05:36:02;;;;;;;14.85;3.67;;;10.00;99.90;;;;;;5024581;28;20034;-66
2022/05/29 05:38:28;;;;;;;14.73;3.90;;;9.80;99.90;;;;;;5006998;28;20054;-67
2022/05/29 05:40:54;;;;;;;12.25;3.65;;;10.00;99.90;;;;;;5024868;28;20037;-66
2022/05/29 05:43:19;;;;;;;14.00;2.88;;;10.00;99.90;;;;;;5017759;28;20064;-67
2022/05/29 05:45:45;;;;;;;16.73;3.03;;;10.00;99.90;;;;;;5019319;28;20060;-66
2022/05/29 05:48:11;;;;;;;12.02;2.92;;;10.00;99.90;;;;;;5025431;28;20050;-67
2022/05/29 05:50:38;;;;;;;15.38;3.40;;;10.00;99.90;;;;;;5019048;28;20445;-67
2022/05/29 05:53:04;;;;;;;14.73;3.17;;;10.40;99.90;;;;;;5017931;28;20046;-67
2022/05/29 05:55:30;;;;;;;15.20;3.45;;;10.10;99.90;;;;;;5006484;28;20042;-67
2022/05/29 05:57:55;;;;;;;17.85;2.92;;;10.10;99.90;;;;;;5007855;28;20057;-67
2022/05/29 06:00:23;;;;;;;15.50;3.05;;;10.10;99.90;;;;;;5026718;28;20056;-67
2022/05/29 06:02:48;;;;;;;12.13;3.40;;;10.30;99.90;;;;;;5008217;28;20108;-67
2022/05/29 06:05:15;;;;;;;15.32;3.28;;;10.10;99.90;;;;;;5008059;28;20058;-67
2022/05/29 06:07:41;;;;;;;15.48;3.40;;;10.30;99.90;;;;;;5006817;28;20045;-67
2022/05/29 06:10:08;;;;;;;14.23;2.88;;;10.40;99.90;;;;;;5025580;28;20457;-67
2022/05/29 06:12:34;;;;;;;11.65;3.72;;;10.30;99.90;;;;;;5007556;28;20168;-67
2022/05/29 06:15:00;;;;;;;13.65;3.00;;;10.30;99.90;;;;;;5024382;28;20064;-67
2022/05/29 06:17:27;;;;;;;11.85;3.15;;;10.30;99.90;;;;;;5023716;28;20038;-67
2022/05/29 06:19:52;;;;;;;17.33;3.60;;;10.60;99.90;;;;;;5004378;28;20045;-67
2022/05/29 06:22:18;;;;;;;17.58;3.88;;;10.10;99.90;;;;;;5020133;28;20056;-66
2022/05/29 06:24:44;;;;;;;14.65;3.50;;;10.30;99.90;;;;;;5025159;28;20076;-66
2022/05/29 06:27:10;;;;;;;10.45;3.40;;;10.30;99.90;;;;;;5001371;28;20035;-67
2022/05/29 06:29:35;;;;;;;13.20;3.78;;;10.30;99.90;;;;;;5024917;28;20109;-67
2022/05/29 06:32:03;;;;;;;16.00;3.03;;;10.20;99.90;;;;;;5029346;28;20064;-67
2022/05/29 06:34:30;;;;;;;14.20;3.25;;;10.20;99.90;;;;;;5041877;28;20469;-67
2022/05/29 06:36:56;;;;;;;13.93;3.22;;;10.20;99.90;;;;;;5026011;28;20041;-67
2022/05/29 06:39:22;;;;;;;12.55;3.08;;;10.20;99.90;;;;;;5025310;28;20057;-68
2022/05/29 06:41:48;;;;;;;11.48;3.75;;;10.10;99.90;;;;;;5025822;28;20112;-67
2022/05/29 06:44:14;;;;;;;14.25;3.63;;;10.30;99.90;;;;;;5026475;28;20401;-67
2022/05/29 06:46:40;;;;;;;14.75;3.03;;;10.30;99.90;;;;;;5024364;28;20046;-67
2022/05/29 06:49:06;;;;;;;11.65;3.42;;;10.40;99.90;;;;;;5025315;28;20044;-66
2022/05/29 06:51:32;;;;;;;9.70;2.97;;;10.50;99.90;;;;;;5024172;28;20045;-66
2022/05/29 06:54:00;;;;;;;13.38;2.80;;;10.50;99.90;;;;;;5025454;28;20041;-67
2022/05/29 06:56:26;;;;;;;14.45;3.38;;;10.60;99.90;;;;;;5025509;28;20053;-67
2022/05/29 06:58:54;;;;;;;9.55;2.83;;;10.70;99.90;;;;;;5043778;28;20052;-67
2022/05/29 07:06:59;;;;;;;14.27;3.63;;;10.70;99.90;;;;;;5055174;28;20109;-68
2022/05/29 07:09:26;;;;;;;18.48;3.45;;;10.60;99.90;;;;;;5025633;28;20116;-68
2022/05/29 07:12:02;;;;;;;18.02;3.92;;;10.70;99.90;;;;;;5042488;28;20045;-69
2022/05/29 07:14:28;;;;;;;14.88;3.03;;;10.80;99.90;;;;;;5044501;28;20052;-69
2022/05/29 07:16:54;;;;;;;16.95;3.63;;;10.80;99.90;;;;;;5043481;28;20041;-68
2022/05/29 07:19:20;;;;;;;17.67;3.45;;;10.70;99.90;;;;;;5040944;28;20053;-70
2022/05/29 07:21:46;;;;;;;16.70;3.72;;;10.80;99.90;;;;;;5013089;28;20075;-67
2022/05/29 07:24:12;;;;;;;17.45;3.22;;;10.70;99.90;;;;;;5026951;28;20450;-67
2022/05/29 07:26:38;;;;;;;14.15;3.60;;;10.90;99.90;;;;;;5009285;28;20272;-67
2022/05/29 07:29:04;;;;;;;22.95;3.47;;;10.90;99.90;;;;;;5037134;28;20041;-67
2022/05/29 07:31:29;;;;;;;11.32;2.92;;;10.90;99.90;;;;;;5025103;28;20587;-67
2022/05/29 07:33:56;;;;;;;16.65;3.28;;;10.90;99.90;;;;;;5029634;28;20069;-67
2022/05/29 07:36:24;;;;;;;19.60;3.28;;;11.00;99.90;;;;;;5028334;28;20160;-67
2022/05/29 07:38:50;;;;;;;12.85;3.45;;;11.00;99.90;;;;;;5044279;28;20428;-67
2022/05/29 07:44:00;;;;;;;13.77;2.47;;;10.90;99.90;;;;;;5026183;28;20064;-66
2022/05/29 07:46:26;;;;;;;12.05;3.03;;;11.10;99.90;;;;;;5027951;28;20038;-66
2022/05/29 07:48:52;;;;;;;20.02;3.25;;;11.00;99.90;;;;;;5013686;28;20124;-65
2022/05/29 07:51:17;;;;;;;17.50;3.25;;;10.90;99.90;;;;;;5029164;28;20084;-66
2022/05/29 07:53:44;;;;;;;14.77;2.90;;;11.20;99.90;;;;;;5044152;28;20061;-65
2022/05/29 07:56:10;;;;;;;12.65;3.30;;;11.10;99.90;;;;;;5042492;28;20054;-66
2022/05/29 07:58:38;;;;;;;10.70;2.72;;;11.20;99.90;;;;;;5025446;28;20068;-65
2022/05/29 08:01:05;;;;;;;12.60;2.60;;;11.10;99.90;;;;;;5051725;28;20053;-65
2022/05/29 08:03:31;;;;;;;10.38;2.42;;;11.30;99.90;;;;;;5010635;28;20058;-65
2022/05/29 08:05:57;;;;;;;9.93;2.42;;;11.40;99.90;;;;;;5030929;28;20132;-65
2022/05/29 08:08:23;;;;;;;14.05;3.33;;;11.40;99.90;;;;;;5026256;28;20045;-65
2022/05/29 08:10:49;;;;;;;13.57;2.60;;;11.40;99.90;;;;;;5030433;28;20535;-65
2022/05/29 08:13:15;;;;;;;9.10;2.03;;;11.50;99.90;;;;;;5032841;28;20045;-66
2022/05/29 08:15:41;;;;;;;9.85;2.00;;;11.40;99.90;;;;;;5046382;28;20049;-65
2022/05/29 08:18:09;;;;;;;7.15;2.20;;;11.10;99.90;;;;;;5030383;28;20037;-65
2022/05/29 08:20:36;;;;;;;8.88;2.20;;;11.30;99.90;;;;;;5030713;28;20049;-65
2022/05/29 08:23:03;;;;;;;11.60;2.75;;;11.20;99.90;;;;;;5033841;28;20089;-65
2022/05/29 08:30:57;;;;;;;8.75;1.75;;;11.20;99.90;;;;;;5046549;28;20106;-65
2022/05/29 08:33:26;;;;;;;10.20;2.10;;;11.40;99.90;;;;;;5048437;28;20128;-65
2022/05/29 08:35:56;;;;;;;10.07;2.10;;;11.30;99.90;;;;;;5064442;28;20073;-65
2022/05/29 08:38:22;;;;;;;8.68;2.70;;;11.30;99.90;;;;;;5030477;28;20053;-66
2022/05/29 08:40:56;;;;;;;7.65;2.22;;;11.40;99.90;;;;;;5033707;28;20116;-65
2022/05/29 08:43:31;;;;;;;6.28;2.45;;;11.60;99.90;;;;;;5066496;28;20105;-65
2022/05/29 08:46:00;;;;;;;13.43;1.92;;;11.60;99.90;;;;;;5045734;28;20096;-65
2022/05/29 08:48:27;;;;;;;6.37;1.80;;;11.60;99.90;;;;;;5013953;28;20498;-65
2022/05/29 08:51:18;;;;;;;6.15;2.15;;;11.60;99.90;;;;;;5028662;28;20295;-65
2022/05/29 08:53:50;;;;;;;9.10;2.13;;;11.70;99.90;;;;;;5030021;28;20092;-65
2022/05/29 08:56:20;;;;;;;6.70;2.05;;;11.80;99.90;;;;;;5029553;28;20138;-65
2022/05/29 08:59:14;;;;;;;9.38;2.47;;;11.80;99.90;;;;;;5028370;28;20059;-65
2022/05/29 09:02:14;;;;;;;8.63;1.95;;;11.60;99.90;;;;;;5026494;28;20065;-65
2022/05/29 09:04:45;;;;;;;4.72;1.80;;;11.60;99.90;;;;;;5019269;28;20046;-65
2022/05/29 09:07:17;;;;;;;4.57;1.20;;;11.60;99.90;;;;;;5023915;28;20046;-65
2022/05/29 09:10:01;;;;;;;4.10;1.20;;;11.80;99.90;;;;;;5028354;28;20139;-65
2022/05/29 09:12:41;;;;;;;8.60;1.75;;;11.80;99.90;;;;;;5027730;28;20046;-65
2022/05/29 09:15:36;;;;;;;5.13;1.40;;;11.80;99.90;;;;;;5030292;28;20057;-65
2022/05/29 09:18:36;;;;;;;8.00;1.80;;;11.80;99.90;;;;;;5041425;28;20041;-65
2022/05/29 09:21:08;;;;;;;3.53;1.50;;;11.80;99.90;;;;;;5022408;28;20394;-66
2022/05/29 09:23:44;;;;;;;7.28;1.83;;;11.90;99.90;;;;;;5027219;28;20053;-65
2022/05/29 09:26:21;;;;;;;5.78;1.60;;;11.80;99.90;;;;;;5027138;28;20038;-65
2022/05/29 09:28:47;;;;;;;6.88;1.95;;;11.60;99.90;;;;;;5012405;28;20053;-65
2022/05/29 09:31:22;;;;;;;8.30;1.60;;;11.50;99.90;;;;;;5027694;28;20061;-65
2022/05/29 09:33:48;;;;;;;4.22;1.30;;;11.60;99.90;;;;;;5023135;28;20046;-65
2022/05/29 09:36:22;;;;;;;7.78;1.98;;;11.70;99.90;;;;;;5043635;28;20037;-65
2022/05/29 09:39:14;;;;;;;6.88;2.10;;;11.60;99.90;;;;;;5032576;28;20397;-65
2022/05/29 09:41:47;;;;;;;9.27;2.10;;;11.70;99.90;;;;;;5031543;28;20118;-65
2022/05/29 09:44:18;;;;;;;7.25;1.77;;;11.50;99.90;;;;;;5027949;28;20037;-65
2022/05/29 09:46:53;;;;;;;7.65;2.33;;;11.60;99.90;;;;;;5027965;28;20041;-65
2022/05/29 09:52:14;;;;;;;16.90;2.33;;;11.70;99.90;;;;;;5027780;28;20190;-65
2022/05/29 09:54:50;;;;;;;5.75;1.60;;;11.60;99.90;;;;;;5029950;28;20060;-65
2022/05/29 09:57:41;;;;;;;8.43;2.40;;;11.70;99.90;;;;;;5065391;28;20041;-66
2022/05/29 10:00:14;;;;;;;12.15;2.22;;;11.90;99.90;;;;;;5030621;28;20096;-65
2022/05/29 10:02:45;;;;;;;8.10;2.05;;;12.00;99.90;;;;;;5030218;28;20060;-65
2022/05/29 10:05:41;;;;;;;8.13;1.92;;;11.90;99.90;;;;;;5062207;28;20441;-65
2022/05/29 10:08:29;;;;;;;6.22;1.50;;;11.80;99.90;;;;;;5023314;28;20053;-65
2022/05/29 10:10:55;;;;;;;5.15;1.45;;;12.00;99.90;;;;;;5028205;28;20045;-65
2022/05/29 10:13:35;;;;;;;6.60;2.45;;;12.10;99.90;;;;;;5044530;28;20049;-65
2022/05/29 10:16:01;;;;;;;6.00;2.25;;;12.20;99.90;;;;;;5029074;28;20049;-65
2022/05/29 10:18:36;;;;;;;8.30;1.60;;;12.40;99.90;;;;;;5029789;28;20061;-65
2022/05/29 10:21:17;;;;;;;8.35;2.00;;;12.40;99.90;;;;;;5022396;28;20045;-66
2022/05/29 10:23:58;;;;;;;6.80;1.77;;;12.50;99.90;;;;;;5027123;28;20049;-65
2022/05/29 10:26:33;;;;;;;7.43;1.92;;;12.30;99.90;;;;;;5026424;28;20045;-65
2022/05/29 10:29:02;;;;;;;8.00;1.92;;;12.40;99.90;;;;;;5022525;28;20049;-65
2022/05/29 10:31:35;;;;;;;7.53;1.63;;;12.10;99.90;;;;;;5062379;28;20084;-65
2022/05/29 10:34:08;;;;;;;9.80;1.60;;;12.10;99.90;;;;;;5027222;28;20050;-65
2022/05/29 10:36:35;;;;;;;6.00;1.88;;;11.90;99.90;;;;;;5043779;28;20045;-65
2022/05/29 10:39:12;;;;;;;6.88;1.50;;;12.10;99.90;;;;;;5029737;28;20501;-66
2022/05/29 10:41:41;;;;;;;8.93;2.10;;;11.90;99.90;;;;;;5048244;28;20046;-65
2022/05/29 10:44:11;;;;;;;11.00;2.15;;;11.80;99.90;;;;;;5048984;28;20077;-66
2022/05/29 10:47:02;;;;;;;5.18;1.63;;;11.80;99.90;;;;;;5063315;28;20049;-66
2022/05/29 10:49:33;;;;;;;9.70;2.58;;;12.00;99.90;;;;;;5026294;28;20046;-66
2022/05/29 10:52:05;;;;;;;10.45;2.45;;;12.10;99.90;;;;;;5043216;28;20072;-65
2022/05/29 10:55:10;;;;;;;6.95;2.05;;;12.10;99.90;;;;;;5027604;28;20054;-65
2022/05/29 10:57:55;;;;;;;7.93;1.88;;;12.10;99.90;;;;;;5007435;28;20050;-66
2022/05/29 11:00:28;;;;;;;5.60;1.63;;;12.20;99.90;;;;;;5045450;28;20045;-66
2022/05/29 11:03:26;;;;;;;10.35;1.98;;;12.20;99.90;;;;;;5027543;28;20049;-66
2022/05/29 11:06:20;;;;;;;10.13;2.20;;;12.20;99.90;;;;;;5029654;28;20106;-66
2022/05/29 11:09:23;;;;;;;7.13;1.73;;;12.20;99.90;;;;;;5043906;28;20053;-66
2022/05/29 11:12:23;;;;;;;9.05;1.92;;;12.10;99.90;;;;;;5042803;28;20052;-66
2022/05/29 11:14:56;;;;;;;5.97;1.92;;;12.20;99.90;;;;;;5025482;28;20053;-66
2022/05/29 11:17:40;;;;;;;6.10;1.75;;;12.10;99.90;;;;;;5030034;28;20053;-66
2022/05/29 11:20:44;;;;;;;8.18;1.95;;;12.00;99.90;;;;;;5030290;28;20060;-66
2022/05/29 11:23:40;;;;;;;6.90;1.70;;;12.00;99.90;;;;;;5003731;28;20089;-66
2022/05/29 11:26:13;;;;;;;9.95;2.42;;;12.00;99.90;;;;;;5042627;28;20045;-66
2022/05/29 11:29:00;;;;;;;11.20;2.17;;;12.00;99.90;;;;;;5043418;28;20107;-66
2022/05/29 11:31:50;;;;;;;6.22;1.70;;;12.10;99.90;;;;;;5024749;28;20052;-66
2022/05/29 11:34:16;;;;;;;7.97;1.80;;;12.20;99.90;;;;;;5044580;28;20053;-66
2022/05/29 11:37:03;;;;;;;9.95;2.00;;;12.20;99.90;;;;;;5044113;28;20108;-66
2022/05/29 11:39:40;;;;;;;8.15;1.75;;;12.40;99.90;;;;;;5010220;28;20049;-66
2022/05/29 11:42:24;;;;;;;5.68;1.55;;;12.60;99.90;;;;;;5026629;28;20521;-66
2022/05/29 11:45:09;;;;;;;12.93;2.00;;;12.70;99.90;;;;;;5063814;28;20068;-66
2022/05/29 11:51:10;;;;;;;6.72;1.88;;;12.60;99.90;;;;;;5043316;28;20041;-66
2022/05/29 11:53:55;;;;;;;7.88;2.35;;;12.50;99.90;;;;;;5065045;28;20050;-66
2022/05/29 11:56:32;;;;;;;7.43;1.50;;;12.60;99.90;;;;;;5020108;28;20088;-66
2022/05/29 11:59:39;;;;;;;8.60;1.77;;;12.40;99.90;;;;;;5029857;28;20052;-66
2022/05/29 12:02:19;;;;;;;7.63;1.92;;;12.40;99.90;;;;;;5029922;28;20061;-66
2022/05/29 12:04:49;;;;;;;;;;;12.30;99.90;;;;;;5029099;28;20073;-66
2022/05/29 12:07:32;;;;;;;6.18;1.67;;;12.10;99.90;;;;;;5046787;28;20015;-66
2022/05/29 12:10:22;;;;;;;6.47;1.50;;;12.10;99.90;;;;;;5047269;28;20052;-66
2022/05/29 12:12:57;;;;;;;8.07;1.50;;;12.30;99.90;;;;;;5024945;28;20282;-66
2022/05/29 12:15:23;;;;;;;9.15;2.05;;;12.30;99.90;;;;;;5027132;28;20127;-66
2022/05/29 12:18:12;;;;;;;6.80;1.88;;;12.30;99.90;;;;;;5025935;28;20444;-66
2022/05/29 12:20:47;;;;;;;6.57;1.70;;;12.50;99.90;;;;;;5030141;28;20260;-66
2022/05/29 12:23:25;;;;;;;7.03;2.20;;;12.30;99.90;;;;;;5016676;28;20139;-66
2022/05/29 12:26:07;;;;;;;7.90;1.60;;;12.50;99.90;;;;;;5024160;28;20064;-66
2022/05/29 12:28:44;;;;;;;6.00;2.05;;;12.50;99.90;;;;;;5046298;28;20045;-66
2022/05/29 12:31:33;;;;;;;7.22;1.80;;;12.70;99.90;;;;;;5028924;28;20049;-66
2022/05/29 12:33:59;;;;;;;9.00;2.22;;;12.90;99.90;;;;;;5022520;28;20077;-66
2022/05/29 12:36:43;;;;;;;6.53;1.70;;;13.00;99.90;;;;;;5064962;28;20052;-66
2022/05/29 12:39:39;;;;;;;7.75;2.28;;;13.00;99.90;;;;;;5028563;28;20155;-66
2022/05/29 12:42:27;;;;;;;5.15;1.67;;;13.10;99.90;;;;;;5049703;28;20045;-66
2022/05/29 12:45:43;;;;;;;10.45;1.92;;;13.20;99.90;;;;;;5029106;28;20052;-66
2022/05/29 12:48:24;;;;;;;9.95;1.92;;;13.20;99.90;;;;;;4931539;29;20094;-66
2022/05/29 12:51:18;;;;;;;11.90;2.33;;;13.20;99.90;;;;;;4929938;29;20048;-66
2022/05/29 12:54:15;;;;;;;9.85;2.30;;;13.10;99.90;;;;;;4910628;29;20036;-66
2022/05/29 12:57:09;;;;;;;10.57;2.20;;;12.80;99.90;;;;;;4914335;29;20048;-66
2022/05/29 13:00:07;;;;;;;9.02;1.80;;;12.80;99.90;;;;;;4929257;29;20052;-66
2022/05/29 13:02:56;;;;;;;7.88;1.95;;;12.70;99.90;;;;;;4926495;29;20067;-66
2022/05/29 13:06:00;;;;;;;8.65;2.13;;;12.60;99.90;;;;;;4912291;29;20071;-66
2022/05/29 13:08:51;;;;;;;8.95;2.20;;;12.60;99.90;;;;;;4908593;29;20058;-66
2022/05/29 13:11:23;;;;;;;10.65;2.10;;;12.30;99.90;;;;;;4913466;29;20083;-66
2022/05/29 13:13:58;;;;;;;4.03;1.83;;;12.00;99.90;;;;;;4909821;29;20044;-66
2022/05/29 13:16:34;;;;;;;8.75;2.03;;;12.00;99.90;;;;;;4925148;29;20365;-66
2022/05/29 13:19:18;;;;;;;12.02;2.13;;;12.00;99.90;;;;;;4911193;29;20063;-66
2022/05/29 13:22:04;;;;;;;8.73;1.83;;;11.90;99.90;;;;;;4910414;29;20056;-66
2022/05/29 13:25:01;;;;;;;10.88;2.10;;;12.00;99.90;;;;;;5004959;28;20121;-66
2022/05/29 13:27:29;;;;;;;10.63;2.60;;;12.10;99.90;;;;;;5017899;28;20053;-66
2022/05/29 13:29:58;;;;;;;12.88;2.22;;;12.10;99.90;;;;;;5023101;28;20077;-66
2022/05/29 13:32:34;;;;;;;5.57;1.77;;;12.00;99.90;;;;;;5027568;28;20053;-66
2022/05/29 13:35:03;;;;;;;6.32;1.27;;;12.30;99.90;;;;;;5027977;28;20057;-66
2022/05/29 13:37:32;;;;;;;4.15;1.48;;;12.40;99.90;;;;;;5028060;28;20056;-66
2022/05/29 13:40:04;;;;;;;5.50;1.92;;;12.70;99.90;;;;;;5027040;28;20087;-66
2022/05/29 13:42:33;;;;;;;6.40;1.55;;;12.90;99.90;;;;;;5030459;28;20057;-66
2022/05/29 13:44:59;;;;;;;8.60;1.70;;;13.30;99.90;;;;;;5041204;28;20404;-66
2022/05/29 13:47:47;;;;;;;7.25;1.98;;;13.50;99.90;;;;;;5028237;28;20049;-66